Time;durP1;ratioP1;P1;durP2;ratioP2;P2;SDS_P1;SDS_P2;PMS_P1;PMS_P2;Temp;Humidity;BMP_temperature;BMP_pressure;BME280_temperature;BME280_humidity;BME280_pressure;Samples;Min_cycle;Max_cycle;Signal;HPM_P1;HPM_P2
2023/10/02 00:05:06;;;;;;;15.82;6.57;;;;;;;21.77;70.30;102066.59;5033188;28;20102;-74
2023/10/02 00:07:42;;;;;;;16.38;7.28;;;;;;;21.71;70.39;102064.00;5033848;28;20052;-73
2023/10/02 00:10:08;;;;;;;15.30;7.20;;;;;;;21.76;70.05;102065.69;5031200;28;20033;-74
2023/10/02 00:12:36;;;;;;;15.35;7.10;;;;;;;21.76;69.76;102065.69;5032872;28;20342;-74
2023/10/02 00:15:14;;;;;;;14.73;6.63;;;;;;;21.79;69.92;102081.56;5032987;28;20037;-74
2023/10/02 00:17:48;;;;;;;14.60;7.13;;;;;;;21.72;70.34;102076.34;5033742;28;20115;-74
2023/10/02 00:20:22;;;;;;;15.05;7.10;;;;;;;21.74;70.12;102074.56;5033334;28;20037;-74
2023/10/02 00:22:50;;;;;;;16.73;7.05;;;;;;;21.70;70.08;102078.19;5033075;28;20168;-73
2023/10/02 00:25:19;;;;;;;14.60;7.22;;;;;;;21.62;70.17;102083.56;5033267;28;20040;-74
2023/10/02 00:27:48;;;;;;;13.57;6.82;;;;;;;21.64;69.98;102087.09;5032892;28;20034;-74
2023/10/02 00:30:15;;;;;;;12.32;6.40;;;;;;;21.54;69.98;102090.75;5031726;28;20029;-73
2023/10/02 00:32:45;;;;;;;14.80;6.93;;;;;;;21.44;70.06;102084.69;5025884;28;20155;-73
2023/10/02 00:35:11;;;;;;;13.85;6.80;;;;;;;21.36;70.22;102081.25;5034601;28;20111;-76
2023/10/02 00:37:45;;;;;;;14.70;6.50;;;;;;;21.31;70.46;102076.91;5034141;28;20046;-73
2023/10/02 00:40:21;;;;;;;16.07;7.17;;;;;;;21.27;70.74;102077.84;5035301;28;20041;-75
2023/10/02 00:42:56;;;;;;;14.10;6.50;;;;;;;21.25;70.99;102069.00;5037791;28;20291;-74
2023/10/02 00:45:23;;;;;;;15.77;7.05;;;;;;;21.20;71.28;102071.72;5037353;28;20034;-74
2023/10/02 00:48:24;;;;;;;14.00;6.72;;;;;;;21.19;71.21;102058.47;5032316;28;20087;-75
2023/10/02 00:50:49;;;;;;;14.27;6.88;;;;;;;21.15;72.21;102067.34;5032573;28;20044;-75
2023/10/02 00:53:24;;;;;;;13.93;7.13;;;;;;;21.24;72.36;102061.94;5032093;28;20034;-74
2023/10/02 00:55:51;;;;;;;16.15;7.32;;;;;;;21.26;72.09;102062.81;5032483;28;20288;-75
2023/10/02 00:58:19;;;;;;;14.50;6.75;;;;;;;21.26;72.38;102061.03;5031041;28;20490;-74
2023/10/02 01:00:50;;;;;;;14.40;6.93;;;;;;;21.27;72.50;102056.63;5034654;28;20037;-76
2023/10/02 01:03:19;;;;;;;17.35;7.32;;;;;;;21.22;72.92;102053.16;5039019;28;20033;-74
2023/10/02 01:05:50;;;;;;;15.80;7.13;;;;;;;21.29;72.58;102052.16;5046349;28;20044;-75
2023/10/02 01:08:42;;;;;;;16.33;7.57;;;;;;;21.36;72.34;102052.06;5042720;28;20040;-75
2023/10/02 01:11:13;;;;;;;14.75;7.00;;;;;;;21.48;71.34;102047.50;5039833;28;20029;-73
2023/10/02 01:13:42;;;;;;;13.95;6.63;;;;;;;21.45;71.77;102053.75;5037030;28;20029;-74
2023/10/02 01:16:09;;;;;;;14.57;7.03;;;;;;;21.52;71.00;102050.09;5030876;28;20104;-73
2023/10/02 01:18:38;;;;;;;14.23;7.07;;;;;;;21.43;71.56;102052.88;5032550;28;20098;-73
2023/10/02 01:21:24;;;;;;;13.38;6.93;;;;;;;21.32;72.24;102054.78;5031931;28;20431;-74
2023/10/02 01:26:51;;;;;;;14.20;7.15;;;;;;;21.40;71.44;102058.22;4989587;28;20042;-74
2023/10/02 01:29:16;;;;;;;13.05;6.68;;;;;;;21.38;71.52;102050.28;5023041;28;20064;-74
2023/10/02 01:31:45;;;;;;;17.02;6.93;;;;;;;21.43;71.21;102053.75;5031961;28;20051;-74
2023/10/02 01:34:39;;;;;;;15.85;7.45;;;;;;;21.42;71.62;102045.78;5029734;28;20087;-74
2023/10/02 01:37:32;;;;;;;15.85;7.03;;;;;;;21.39;71.58;102051.16;5031351;28;20092;-74
2023/10/02 01:39:53;;;;;;;16.10;7.38;;;;;;;21.18;72.69;102046.09;5029334;28;20155;-74
2023/10/02 01:42:21;;;;;;;14.45;6.80;;;;;;;21.45;71.11;102046.66;5030150;28;20034;-75
2023/10/02 01:44:55;;;;;;;15.43;7.00;;;;;;;21.06;72.71;102055.94;5030078;28;20439;-75
2023/10/02 01:47:20;;;;;;;13.02;6.43;;;;;;;21.19;71.79;102053.16;5030038;28;20135;-73
2023/10/02 01:49:47;;;;;;;16.92;6.80;;;;;;;21.15;71.42;102056.72;5030237;28;20423;-73
2023/10/02 01:52:13;;;;;;;12.10;6.50;;;;;;;21.12;71.48;102060.28;5030875;28;20410;-74
2023/10/02 01:54:51;;;;;;;15.07;6.85;;;;;;;21.15;70.99;102055.00;5030474;28;20033;-73
2023/10/02 01:57:24;;;;;;;14.90;6.75;;;;;;;21.06;71.39;102053.28;5031174;28;20040;-74
2023/10/02 01:59:49;;;;;;;17.15;7.60;;;;;;;20.97;71.94;102055.16;5030917;28;20034;-75
2023/10/02 02:02:15;;;;;;;15.05;7.53;;;;;;;20.96;71.93;102048.97;5031655;28;20482;-74
2023/10/02 02:04:48;;;;;;;15.05;7.65;;;;;;;20.93;71.99;102048.13;5031929;28;20473;-74
2023/10/02 02:07:15;;;;;;;15.40;6.97;;;;;;;20.92;71.96;102049.88;5033114;28;20034;-74
2023/10/02 02:09:42;;;;;;;15.45;7.50;;;;;;;20.84;72.26;102038.50;5039740;28;20124;-75
2023/10/02 02:12:10;;;;;;;15.07;7.07;;;;;;;20.82;72.88;102037.63;5033553;28;20112;-74
2023/10/02 02:14:52;;;;;;;15.68;7.75;;;;;;;20.85;72.27;102040.25;5031227;28;20065;-74
2023/10/02 02:17:27;;;;;;;17.35;7.57;;;;;;;20.90;71.98;102043.75;5031339;28;20553;-74
2023/10/02 02:19:56;;;;;;;15.00;7.43;;;;;;;20.92;71.75;102030.47;5031225;28;20063;-74
2023/10/02 02:22:31;;;;;;;17.42;7.60;;;;;;;20.82;72.49;102042.06;5028978;28;20486;-74
2023/10/02 02:25:00;;;;;;;14.90;7.95;;;;;;;20.75;72.41;102040.34;5030632;28;20125;-74
2023/10/02 02:27:27;;;;;;;14.52;6.93;;;;;;;20.75;72.27;102035.94;5029254;28;20498;-73
2023/10/02 02:29:57;;;;;;;14.52;6.95;;;;;;;20.70;72.32;102036.88;5030067;28;20068;-73
2023/10/02 02:32:44;;;;;;;15.35;6.82;;;;;;;20.63;72.24;102036.94;5030868;28;20033;-74
2023/10/02 02:35:15;;;;;;;16.88;7.47;;;;;;;20.59;72.52;102032.56;5030467;28;20128;-73
2023/10/02 02:37:41;;;;;;;16.00;7.40;;;;;;;20.60;72.75;102036.97;5028653;28;20368;-73
2023/10/02 02:40:22;;;;;;;19.60;7.63;;;;;;;20.64;72.64;102032.53;5030012;28;20525;-74
2023/10/02 02:42:51;;;;;;;14.60;7.30;;;;;;;20.67;72.73;102033.34;5030381;28;20037;-75
2023/10/02 02:45:31;;;;;;;18.48;7.57;;;;;;;20.60;73.07;102030.81;5029751;28;20033;-74
2023/10/02 02:48:04;;;;;;;14.43;7.38;;;;;;;20.61;72.73;102032.56;5030345;28;20596;-74
2023/10/02 02:50:43;;;;;;;14.63;7.32;;;;;;;20.59;73.05;102042.28;5029459;28;20502;-73
2023/10/02 02:53:16;;;;;;;16.45;7.47;;;;;;;20.48;73.66;102033.56;5032898;28;20540;-73
2023/10/02 02:55:57;;;;;;;15.60;7.38;;;;;;;20.52;73.01;102028.22;5029361;28;20120;-74
2023/10/02 02:58:35;;;;;;;15.85;7.55;;;;;;;20.50;73.38;102026.47;5029009;28;20501;-73
2023/10/02 03:01:01;;;;;;;16.73;7.82;;;;;;;20.45;73.53;102023.88;5029021;28;20034;-74
2023/10/02 03:03:41;;;;;;;17.08;7.88;;;;;;;20.44;73.92;102022.09;5028662;28;20044;-75
2023/10/02 03:06:14;;;;;;;15.82;7.82;;;;;;;20.61;73.35;102025.47;5030270;28;20041;-76
2023/10/02 03:08:41;;;;;;;15.45;7.55;;;;;;;20.64;73.22;102024.56;5029560;28;20022;-74
2023/10/02 03:11:10;;;;;;;17.75;8.00;;;;;;;20.58;73.90;102029.94;5027832;28;20193;-74
2023/10/02 03:13:39;;;;;;;15.95;7.63;;;;;;;20.64;73.27;102030.75;5029829;28;20026;-74
2023/10/02 03:16:29;;;;;;;18.55;8.38;;;;;;;20.67;73.39;102030.69;5029724;28;20038;-74
2023/10/02 03:19:07;;;;;;;19.45;8.43;;;;;;;20.63;73.65;102025.47;5032142;28;20038;-74
2023/10/02 03:21:38;;;;;;;19.13;8.02;;;;;;;20.68;73.89;102020.97;5032520;28;20033;-74
2023/10/02 03:24:04;;;;;;;17.92;8.55;;;;;;;20.69;73.83;102022.75;5029484;28;20129;-75
2023/10/02 03:29:16;;;;;;;21.63;9.00;;;;;;;20.70;74.14;102016.56;5010262;28;20496;-74
2023/10/02 03:31:51;;;;;;;17.02;8.15;;;;;;;20.83;73.58;102014.66;5008580;28;20116;-74
2023/10/02 03:34:29;;;;;;;18.08;8.88;;;;;;;20.81;73.83;102016.44;5010340;28;20226;-75
2023/10/02 03:39:59;;;;;;;18.42;8.20;;;;;;;20.73;73.69;102015.66;5019759;23;20781;-43
2023/10/02 03:42:32;;;;;;;15.35;7.40;;;;;;;20.88;73.50;102019.00;5029299;28;20030;-44
2023/10/02 03:45:05;;;;;;;17.33;8.00;;;;;;;20.87;73.26;102014.59;5028813;28;20042;-47
2023/10/02 03:47:33;;;;;;;18.57;8.63;;;;;;;20.87;73.47;102011.94;5029594;28;20034;-46
2023/10/02 03:50:02;;;;;;;15.75;7.82;;;;;;;20.80;73.92;102010.25;5027717;28;20280;-46
2023/10/02 03:52:30;;;;;;;14.73;7.63;;;;;;;20.84;73.35;102003.16;5029356;28;20026;-45
2023/10/02 03:54:56;;;;;;;16.80;7.70;;;;;;;20.88;73.10;102002.22;5027738;28;20476;-46
2023/10/02 03:57:37;;;;;;;13.93;7.25;;;;;;;20.86;73.11;102006.69;5029684;28;20049;-44
2023/10/02 04:00:18;;;;;;;16.05;7.00;;;;;;;20.84;72.62;102006.69;5030542;28;20069;-41
2023/10/02 04:02:52;;;;;;;14.38;7.50;;;;;;;20.75;72.71;102005.91;5030588;28;20026;-45
2023/10/02 04:08:14;;;;;;;14.88;7.10;;;;;;;20.71;72.71;101993.59;5028766;28;20040;-43
2023/10/02 04:10:56;;;;;;;16.15;7.53;;;;;;;20.69;72.51;101992.72;5029198;28;20041;-44
2023/10/02 04:13:27;;;;;;;15.65;7.32;;;;;;;20.64;72.28;101990.13;5029105;28;20029;-44
2023/10/02 04:16:28;;;;;;;17.00;7.60;;;;;;;20.55;72.78;101991.06;5028580;28;20041;-47
2023/10/02 04:18:59;;;;;;;16.88;7.30;;;;;;;20.53;72.87;102006.13;5029219;28;20038;-45
2023/10/02 04:21:25;;;;;;;19.47;7.60;;;;;;;20.49;73.15;102001.75;5028874;28;20388;-44
2023/10/02 04:23:53;;;;;;;16.88;7.82;;;;;;;20.47;73.16;102005.31;5028427;28;20033;-46
2023/10/02 04:26:20;;;;;;;16.33;7.72;;;;;;;20.49;72.93;102000.88;5028964;28;20041;-44
2023/10/02 04:28:55;;;;;;;15.20;7.97;;;;;;;20.43;73.54;101996.50;5028423;28;20033;-45
2023/10/02 04:31:27;;;;;;;13.55;7.32;;;;;;;20.42;73.78;101993.88;5028847;28;20033;-47
2023/10/02 04:34:15;;;;;;;14.82;7.55;;;;;;;20.43;74.05;101995.66;5028114;28;20053;-44
2023/10/02 04:36:41;;;;;;;16.50;7.35;;;;;;;20.46;73.94;101992.94;5032475;28;20068;-46
2023/10/02 04:40:07;;;;;;;16.35;7.88;;;;;;;20.45;74.41;101996.50;5032063;28;20072;-46
2023/10/02 04:42:11;;;;;;;18.90;8.00;;;;;;;20.46;74.48;101995.59;5026078;28;20412;-45
2023/10/02 04:44:44;;;;;;;16.08;7.60;;;;;;;20.50;74.33;102000.84;5032725;28;20096;-44
2023/10/02 04:47:19;;;;;;;14.68;7.47;;;;;;;20.57;73.97;102009.63;5032608;28;20706;-44
2023/10/02 04:52:53;;;;;;;16.98;8.00;;;;;;;20.35;75.28;102008.94;5032326;28;20037;-48
2023/10/02 04:55:14;;;;;;;16.25;8.07;;;;;;;20.46;74.53;102011.50;5031856;28;20038;-45
2023/10/02 04:57:42;;;;;;;17.95;7.82;;;;;;;20.48;74.48;102009.72;5032237;28;20064;-45
2023/10/02 05:00:19;;;;;;;16.05;7.78;;;;;;;20.43;74.71;102011.53;5031694;28;20033;-43
2023/10/02 05:02:47;;;;;;;17.48;7.43;;;;;;;20.48;74.35;102012.38;5032016;28;20112;-49
2023/10/02 05:05:14;;;;;;;17.88;7.90;;;;;;;20.42;74.19;102009.78;5031807;28;20038;-45
2023/10/02 05:07:41;;;;;;;18.58;7.65;;;;;;;20.42;74.08;102010.66;5032046;28;20038;-47
2023/10/02 05:10:07;;;;;;;16.45;7.63;;;;;;;20.43;74.28;102007.09;5031476;28;20591;-44
2023/10/02 05:12:35;;;;;;;15.27;7.25;;;;;;;20.43;74.45;102009.75;5031801;28;20411;-45
2023/10/02 05:15:07;;;;;;;18.67;8.10;;;;;;;20.43;74.47;102006.25;5031465;28;20064;-44
2023/10/02 05:17:46;;;;;;;17.98;7.85;;;;;;;20.45;74.24;102004.44;5031804;28;20029;-47
2023/10/02 05:20:15;;;;;;;15.55;7.30;;;;;;;20.44;74.50;101997.38;5031763;28;20103;-46
2023/10/02 05:22:41;;;;;;;18.65;8.32;;;;;;;20.41;74.70;101994.78;5032144;28;20566;-47
2023/10/02 05:25:07;;;;;;;15.73;8.00;;;;;;;20.41;74.58;102003.59;5031287;28;20075;-46
2023/10/02 05:27:37;;;;;;;24.40;9.48;;;;;;;20.36;74.93;102001.88;5031678;28;20029;-45
2023/10/02 05:30:12;;;;;;;16.95;8.10;;;;;;;20.45;74.54;102009.75;5031284;28;20087;-43
2023/10/02 05:32:38;;;;;;;18.00;7.90;;;;;;;20.42;74.78;102015.06;5032402;28;20104;-43
2023/10/02 05:35:25;;;;;;;18.65;8.55;;;;;;;20.46;74.69;102016.78;5031220;28;20128;-44
2023/10/02 05:37:52;;;;;;;18.75;8.35;;;;;;;20.47;74.76;102016.78;5030049;28;20049;-44
2023/10/02 05:43:09;;;;;;;17.65;8.40;;;;;;;20.50;75.05;102006.16;5031334;28;20487;-45
2023/10/02 05:45:47;;;;;;;20.05;8.63;;;;;;;20.50;75.14;102003.50;5030258;28;20048;-44
2023/10/02 05:50:52;;;;;;;18.25;8.18;;;;;;;20.60;75.09;102012.25;5030722;28;20033;-45
2023/10/02 05:53:19;;;;;;;19.65;8.70;;;;;;;20.59;75.10;102016.69;5031333;28;20491;-44
2023/10/02 05:56:04;;;;;;;16.65;7.95;;;;;;;20.64;74.93;102021.91;5031432;28;20033;-43
2023/10/02 05:58:33;;;;;;;19.17;8.32;;;;;;;20.65;74.96;102029.88;5031305;28;20034;-46
2023/10/02 06:01:04;;;;;;;18.98;8.20;;;;;;;20.69;75.21;102036.00;5032162;28;20048;-49
2023/10/02 06:03:34;;;;;;;20.17;9.02;;;;;;;20.67;75.02;102023.66;5034225;28;20037;-44
2023/10/02 06:06:15;;;;;;;17.58;8.30;;;;;;;20.70;75.02;102021.84;5032125;28;20094;-45
2023/10/02 06:08:48;;;;;;;22.17;8.88;;;;;;;20.70;75.01;102039.53;5031233;28;20037;-45
2023/10/02 06:11:28;;;;;;;21.50;8.98;;;;;;;20.72;75.21;102033.34;5030378;28;20037;-46
2023/10/02 06:13:56;;;;;;;18.63;8.80;;;;;;;20.78;75.14;102038.56;5030144;28;20033;-48
2023/10/02 06:16:24;;;;;;;19.58;8.38;;;;;;;20.78;74.93;102035.03;5030860;28;20041;-47
2023/10/02 06:19:00;;;;;;;21.45;8.80;;;;;;;20.85;74.92;102034.97;5030264;28;20091;-44
2023/10/02 06:21:30;;;;;;;21.20;8.52;;;;;;;20.93;74.64;102038.38;5030782;28;20406;-41
2023/10/02 06:23:56;;;;;;;17.98;8.20;;;;;;;20.95;74.42;102035.72;5030058;28;20088;-44
2023/10/02 06:26:29;;;;;;;19.55;9.15;;;;;;;20.56;75.62;102037.00;5030715;28;20033;-44
2023/10/02 06:29:13;;;;;;;19.75;9.10;;;;;;;20.81;75.47;102045.59;5030109;28;20499;-44
2023/10/02 06:31:41;;;;;;;19.23;8.57;;;;;;;20.88;74.90;102050.81;5030727;28;20030;-44
2023/10/02 06:34:08;;;;;;;20.50;9.05;;;;;;;20.92;74.79;102041.94;5030300;28;20143;-45
2023/10/02 06:36:45;;;;;;;19.48;8.82;;;;;;;20.97;74.94;102057.81;5031364;28;20108;-45
2023/10/02 06:39:12;;;;;;;18.33;9.40;;;;;;;20.89;75.04;102059.66;5031260;28;20040;-44
2023/10/02 06:41:38;;;;;;;21.52;9.35;;;;;;;21.02;75.01;102051.56;5030145;28;20033;-45
2023/10/02 06:44:14;;;;;;;20.95;9.73;;;;;;;20.95;75.16;102055.16;5029824;28;20037;-46
2023/10/02 06:46:52;;;;;;;21.17;10.05;;;;;;;21.04;75.16;102055.06;5030287;28;20044;-45
2023/10/02 06:49:18;;;;;;;20.40;9.82;;;;;;;21.27;74.62;102038.94;5029628;28;20037;-45
2023/10/02 06:51:49;;;;;;;18.90;9.50;;;;;;;21.39;73.81;102041.44;5030025;28;20404;-44
2023/10/02 06:54:18;;;;;;;18.80;8.88;;;;;;;21.48;73.90;102037.75;5029879;28;20083;-44
2023/10/02 06:56:44;;;;;;;19.23;9.60;;;;;;;21.55;73.78;102046.53;5029499;28;20464;-44
2023/10/02 06:59:10;;;;;;;21.20;9.75;;;;;;;21.49;73.38;102050.13;5029524;28;20440;-47
2023/10/02 07:01:35;;;;;;;20.80;9.63;;;;;;;21.64;73.52;102052.59;5029882;28;20083;-46
2023/10/02 07:04:09;;;;;;;22.05;9.55;;;;;;;21.74;73.04;102050.69;5029085;28;20036;-46
2023/10/02 07:06:44;;;;;;;20.27;9.97;;;;;;;21.81;72.89;102055.00;5029678;28;20036;-44
2023/10/02 07:09:10;;;;;;;21.33;9.95;;;;;;;21.85;73.02;102060.25;5029328;28;20781;-44
2023/10/02 07:11:42;;;;;;;21.70;10.52;;;;;;;21.86;72.43;102063.78;5029602;28;20120;-48
2023/10/02 07:14:09;;;;;;;20.02;9.77;;;;;;;22.07;72.41;102062.63;5029114;28;20063;-46
2023/10/02 07:16:35;;;;;;;18.23;9.73;;;;;;;22.00;72.27;102060.97;5029728;28;20046;-43
2023/10/02 07:19:01;;;;;;;22.48;9.93;;;;;;;22.24;72.08;102052.63;5029378;28;20029;-43
2023/10/02 07:21:30;;;;;;;18.95;9.70;;;;;;;22.41;70.73;102052.31;5029540;28;20040;-48
2023/10/02 07:23:57;;;;;;;17.23;9.48;;;;;;;22.37;70.98;102050.63;5028945;28;20033;-44
2023/10/02 07:26:49;;;;;;;20.95;10.02;;;;;;;22.41;70.88;102053.22;5029390;28;20037;-45
2023/10/02 07:29:08;;;;;;;21.52;10.25;;;;;;;22.32;71.08;102060.47;5028839;28;20029;-43
2023/10/02 07:31:34;;;;;;;22.67;10.63;;;;;;;22.39;70.98;102070.94;5029432;28;20407;-45
2023/10/02 07:34:00;;;;;;;23.55;10.93;;;;;;;22.24;71.28;102081.84;5029073;28;20083;-45
2023/10/02 07:36:32;;;;;;;24.27;10.93;;;;;;;22.37;71.32;102078.09;5029335;28;20029;-48
2023/10/02 07:39:00;;;;;;;19.88;10.82;;;;;;;22.45;71.48;102081.47;5029099;28;20136;-44
2023/10/02 07:41:25;;;;;;;22.75;10.85;;;;;;;22.44;70.89;102077.09;5029112;28;20025;-44
2023/10/02 07:44:07;;;;;;;22.33;11.02;;;;;;;22.56;70.70;102079.53;5028837;28;20086;-48
2023/10/02 07:46:33;;;;;;;21.42;11.15;;;;;;;22.57;70.78;102081.25;5029381;28;20438;-47
2023/10/02 07:48:59;;;;;;;21.85;10.73;;;;;;;22.76;70.70;102087.16;5028766;28;20400;-45
2023/10/02 07:51:38;;;;;;;21.33;10.57;;;;;;;22.88;70.27;102075.44;5029033;28;20785;-45
2023/10/02 07:54:06;;;;;;;26.30;11.35;;;;;;;22.35;70.96;102092.28;5029060;28;20079;-46
2023/10/02 07:56:33;;;;;;;24.60;11.35;;;;;;;22.69;70.34;102084.63;5029503;28;20036;-43
2023/10/02 07:59:02;;;;;;;22.73;11.10;;;;;;;22.81;69.56;102080.00;5028767;28;20037;-47
2023/10/02 08:01:29;;;;;;;23.52;11.13;;;;;;;22.72;69.88;102077.50;5029030;28;20040;-47
2023/10/02 08:03:58;;;;;;;23.33;11.38;;;;;;;22.89;69.75;102091.38;5028831;28;20044;-44
2023/10/02 08:06:33;;;;;;;22.17;11.00;;;;;;;22.92;69.22;102085.13;5029256;28;20037;-43
2023/10/02 08:11:55;;;;;;;25.50;11.13;;;;;;;23.02;69.65;102078.72;5033060;28;20083;-44
2023/10/02 08:14:38;;;;;;;22.90;11.18;;;;;;;23.03;70.10;102076.03;5032795;28;20033;-45
2023/10/02 08:17:27;;;;;;;24.77;11.45;;;;;;;23.23;69.70;102074.78;5032379;28;20562;-46
2023/10/02 08:19:54;;;;;;;21.70;10.88;;;;;;;23.36;69.51;102074.47;5031167;28;20057;-46
2023/10/02 08:22:23;;;;;;;22.42;11.40;;;;;;;23.40;68.49;102059.34;5032952;28;20034;-44
2023/10/02 08:24:50;;;;;;;26.23;12.20;;;;;;;23.42;68.71;102065.53;5032702;28;20050;-45
2023/10/02 08:27:15;;;;;;;22.45;11.27;;;;;;;23.33;68.74;102058.59;5033744;28;20056;-45
2023/10/02 08:29:41;;;;;;;24.08;12.13;;;;;;;23.46;68.56;102053.88;5033544;28;20585;-46
2023/10/02 08:32:07;;;;;;;21.50;11.77;;;;;;;23.53;68.63;102068.88;5031138;28;20044;-42
2023/10/02 08:34:32;;;;;;;23.50;11.82;;;;;;;23.48;68.48;102059.22;5032850;28;20053;-44
2023/10/02 08:37:12;;;;;;;25.77;12.38;;;;;;;23.69;68.10;102072.06;5032289;28;20471;-44
2023/10/02 08:39:38;;;;;;;25.60;12.32;;;;;;;23.80;67.91;102076.22;5031527;28;20049;-44
2023/10/02 08:42:11;;;;;;;23.75;12.32;;;;;;;23.92;66.89;102079.53;5032201;28;20124;-46
2023/10/02 08:44:45;;;;;;;26.30;12.07;;;;;;;24.07;66.30;102072.06;5032876;28;20046;-44
2023/10/02 08:47:12;;;;;;;27.05;12.60;;;;;;;24.33;66.52;102070.59;5032128;28;20226;-45
2023/10/02 08:49:41;;;;;;;23.55;12.02;;;;;;;24.47;65.60;102079.09;5032415;28;20033;-43
2023/10/02 08:52:13;;;;;;;25.52;12.48;;;;;;;24.51;64.62;102070.16;5031400;28;20037;-45
2023/10/02 08:54:41;;;;;;;26.55;12.70;;;;;;;24.63;65.32;102075.16;5031995;28;20129;-44
2023/10/02 08:57:08;;;;;;;27.85;13.73;;;;;;;24.51;64.25;102087.03;5031843;28;20051;-46
2023/10/02 08:59:40;;;;;;;27.00;12.82;;;;;;;24.69;65.06;102075.00;5032323;28;20029;-50
2023/10/02 09:02:11;;;;;;;24.73;12.27;;;;;;;24.90;64.67;102077.13;5032694;28;20034;-44
2023/10/02 09:04:37;;;;;;;28.50;12.38;;;;;;;25.14;64.09;102072.00;5033332;28;20452;-43
2023/10/02 09:07:15;;;;;;;24.40;11.40;;;;;;;25.27;63.39;102062.75;5031987;28;20034;-46
2023/10/02 09:09:45;;;;;;;26.33;12.88;;;;;;;25.39;62.32;102065.94;5032670;28;20487;-44
2023/10/02 09:12:17;;;;;;;24.50;12.73;;;;;;;25.51;62.74;102067.38;5032322;28;20029;-45
2023/10/02 09:14:43;;;;;;;26.90;13.02;;;;;;;25.03;63.38;102073.19;5032324;28;20057;-41
2023/10/02 09:17:25;;;;;;;26.02;13.30;;;;;;;24.38;65.99;102068.69;5031354;28;20152;-45
2023/10/02 09:19:58;;;;;;;24.45;12.10;;;;;;;25.22;63.56;102059.34;5031503;28;20065;-44
2023/10/02 09:22:25;;;;;;;25.30;11.50;;;;;;;25.33;63.52;102065.25;5031816;28;20029;-46
2023/10/02 09:25:26;;;;;;;22.35;11.35;;;;;;;25.55;63.32;102066.38;5031293;28;20048;-47
2023/10/02 09:28:04;;;;;;;23.40;12.43;;;;;;;25.42;61.97;102068.53;5031883;28;20061;-43
2023/10/02 09:30:36;;;;;;;23.83;12.45;;;;;;;25.22;63.11;102057.56;5031685;28;20717;-48
2023/10/02 09:33:23;;;;;;;21.95;11.18;;;;;;;25.81;62.56;102057.56;5031336;28;20124;-46
2023/10/02 09:35:52;;;;;;;22.42;12.05;;;;;;;25.70;62.50;102054.38;5031152;28;20541;-45
2023/10/02 09:38:22;;;;;;;22.10;11.85;;;;;;;25.77;62.81;102051.47;5031827;28;20037;-44
2023/10/02 09:40:54;;;;;;;23.50;12.10;;;;;;;25.83;62.01;102039.72;5030640;28;20559;-44
2023/10/02 09:43:23;;;;;;;24.90;12.20;;;;;;;25.70;62.71;102041.00;5031843;28;20036;-47
2023/10/02 09:45:53;;;;;;;23.98;12.35;;;;;;;25.62;63.08;102038.56;5030929;28;20037;-49
2023/10/02 09:48:57;;;;;;;22.17;11.50;;;;;;;25.99;62.28;102037.41;5031676;28;20025;-43
2023/10/02 09:51:38;;;;;;;24.50;12.30;;;;;;;26.35;60.15;102033.56;5031193;28;20506;-45
2023/10/02 09:54:28;;;;;;;23.20;13.10;;;;;;;25.98;61.03;102038.38;5031225;28;20271;-45
2023/10/02 09:57:05;;;;;;;26.85;12.88;;;;;;;25.97;61.54;102039.28;5031164;28;20152;-44
2023/10/02 09:59:47;;;;;;;24.38;12.80;;;;;;;26.21;60.04;102035.81;5031310;28;20112;-44
2023/10/02 10:05:02;;;;;;;26.40;13.50;;;;;;;25.98;59.93;102031.22;5031398;28;20057;-44
2023/10/02 10:07:46;;;;;;;27.13;13.77;;;;;;;25.86;60.44;102027.13;5031450;28;20041;-46
2023/10/02 10:10:27;;;;;;;25.42;13.52;;;;;;;25.91;60.53;102029.66;5031185;28;20151;-46
2023/10/02 10:13:09;;;;;;;24.95;13.77;;;;;;;25.81;60.42;102033.53;5030350;28;20033;-42
2023/10/02 10:15:37;;;;;;;25.55;12.90;;;;;;;25.80;61.75;102029.09;5030894;28;20641;-42
2023/10/02 10:18:12;;;;;;;27.13;14.30;;;;;;;25.48;62.63;102032.75;5030793;28;20060;-44
2023/10/02 10:20:38;;;;;;;26.55;15.25;;;;;;;25.26;62.72;102028.97;5031685;28;20033;-47
2023/10/02 10:23:31;;;;;;;27.05;15.32;;;;;;;25.57;63.00;102028.94;5030128;28;20495;-46
2023/10/02 10:26:07;;;;;;;26.35;14.48;;;;;;;25.87;61.72;102028.00;5030914;28;20042;-42
2023/10/02 10:28:33;;;;;;;27.35;15.13;;;;;;;26.14;59.83;102027.13;5030846;28;20033;-43
2023/10/02 10:31:02;;;;;;;28.67;15.23;;;;;;;25.94;60.34;102026.88;5029906;28;20079;-44
2023/10/02 10:33:33;;;;;;;24.75;13.27;;;;;;;26.30;60.10;102016.81;5030288;28;20113;-45
2023/10/02 10:36:02;;;;;;;26.05;13.98;;;;;;;26.40;59.88;102018.25;5030093;28;20029;-45
2023/10/02 10:41:00;;;;;;;31.02;13.95;;;;;;;26.35;59.33;102019.34;5029709;28;20041;-46
2023/10/02 10:43:43;;;;;;;30.42;13.43;;;;;;;26.60;58.25;102026.44;5030481;28;20033;-41
2023/10/02 10:46:27;;;;;;;25.75;12.80;;;;;;;27.02;57.44;102023.19;5029059;28;20116;-46
2023/10/02 10:49:10;;;;;;;24.60;13.25;;;;;;;26.57;58.13;102031.03;5030014;28;20034;-46
2023/10/02 10:51:39;;;;;;;30.85;13.07;;;;;;;26.46;58.74;102015.38;5030000;28;20041;-45
2023/10/02 10:54:12;;;;;;;25.38;12.27;;;;;;;26.80;58.19;102016.84;5029602;28;20468;-47
2023/10/02 10:56:45;;;;;;;21.80;11.25;;;;;;;26.94;56.86;102012.78;5030021;28;20107;-44
2023/10/02 10:59:32;;;;;;;24.97;12.67;;;;;;;26.86;56.40;102017.50;5026577;28;20049;-47
2023/10/02 11:02:12;;;;;;;26.23;11.88;;;;;;;26.89;57.72;102024.59;5028621;28;20034;-42
2023/10/02 11:04:48;;;;;;;20.55;11.50;;;;;;;27.11;56.76;102017.50;5030250;28;20065;-45
2023/10/02 11:07:21;;;;;;;22.40;11.48;;;;;;;27.04;56.73;102015.97;5029714;28;20033;-45
2023/10/02 11:10:16;;;;;;;23.52;12.35;;;;;;;27.12;56.44;102011.22;5028990;28;20046;-43
2023/10/02 11:12:57;;;;;;;24.15;12.68;;;;;;;26.92;57.12;102009.28;5028842;28;20030;-45
2023/10/02 11:15:54;;;;;;;27.05;11.73;;;;;;;26.90;57.04;102005.78;5029227;28;20048;-46
2023/10/02 11:18:20;;;;;;;23.50;11.43;;;;;;;26.19;59.79;102006.44;5028424;28;20403;-45
2023/10/02 11:20:57;;;;;;;20.02;10.63;;;;;;;26.69;58.76;102009.22;5029251;28;20029;-48
2023/10/02 11:23:44;;;;;;;27.10;12.43;;;;;;;26.25;59.47;102005.41;5027558;28;20040;-45
2023/10/02 11:26:13;;;;;;;22.08;10.65;;;;;;;26.56;59.13;102006.09;5028690;28;20021;-42
2023/10/02 11:28:49;;;;;;;20.88;9.57;;;;;;;26.75;58.78;101997.41;5028648;28;20034;-44
2023/10/02 11:34:03;;;;;;;19.13;10.52;;;;;;;26.98;57.93;101990.31;5027595;28;20025;-47
2023/10/02 11:36:37;;;;;;;25.15;12.10;;;;;;;26.47;59.50;101985.00;5029197;28;20129;-48
2023/10/02 11:39:09;;;;;;;;;;;;;;;27.03;58.14;101979.44;5029307;28;20412;-43
2023/10/02 11:41:39;;;;;;;24.63;11.02;;;;;;;26.90;58.01;101981.69;5028909;28;19924;-45
2023/10/02 11:44:11;;;;;;;21.80;10.38;;;;;;;27.29;56.68;101983.81;5027089;28;20440;-43
2023/10/02 11:46:48;;;;;;;18.70;10.18;;;;;;;27.28;57.36;101977.56;5028853;28;20037;-43
2023/10/02 11:49:14;;;;;;;22.08;10.27;;;;;;;26.98;57.12;101981.41;5028842;28;20030;-43
2023/10/02 11:51:40;;;;;;;22.45;10.18;;;;;;;26.94;57.40;101974.44;5028879;28;20140;-43
2023/10/02 11:54:08;;;;;;;21.42;9.57;;;;;;;26.78;58.16;101970.53;5028371;28;20377;-43
2023/10/02 11:56:35;;;;;;;18.75;8.88;;;;;;;26.81;58.37;101967.75;5028967;28;20167;-43
2023/10/02 11:59:02;;;;;;;16.13;8.13;;;;;;;27.20;57.53;101973.47;5028105;28;20164;-45
2023/10/02 12:01:28;;;;;;;17.17;8.05;;;;;;;26.97;56.03;101959.13;5028879;28;20033;-43
2023/10/02 12:03:59;;;;;;;15.07;7.22;;;;;;;27.25;56.40;101964.31;5028165;28;20037;-44
2023/10/02 12:06:26;;;;;;;14.00;7.28;;;;;;;27.32;56.14;101951.56;5029343;28;20033;-41
2023/10/02 12:08:54;;;;;;;14.80;6.85;;;;;;;27.43;55.38;101952.00;5027474;28;20038;-41
2023/10/02 12:11:20;;;;;;;17.40;7.00;;;;;;;27.50;55.04;101945.47;5029646;28;20029;-42
2023/10/02 12:13:46;;;;;;;17.67;7.13;;;;;;;27.71;54.55;101933.03;5029408;28;20033;-44